Terminal Aerodrome Forecast
Issued by NWS Cleveland, OH

Home | Current Version | Previous Version | Text Only | Print | Product List | Glossary On
Versions: 1 2 3 4 5 6 7 8 9 10 11 12 13 14 15 16
000
FTUS41 KCLE 192334
TAFTOL
TAF
KTOL 192334Z 2000/2024 22014G24KT P6SM BKN250
     FM200600 23012KT P6SM BKN250
     FM201600 23012G20KT P6SM BKN020
     FM202200 20006KT P6SM OVC012=

USA.gov is the U.S. government's official web portal to all federal, state and local government web resources and services.